Time;durP1;ratioP1;P1;durP2;ratioP2;P2;SDS_P1;SDS_P2;PMS_P1;PMS_P2;Temp;Humidity;BMP_temperature;BMP_pressure;BME280_temperature;BME280_humidity;BME280_pressure;Samples;Min_cycle;Max_cycle;Signal;HPM_P1;HPM_P2
2021/11/24 00:00:48;;;;;;;26.07;17.67;;;6.60;99.90;;;;;;5045897;28;20441;-61
2021/11/24 00:03:14;;;;;;;26.77;17.17;;;6.60;99.90;;;;;;5039337;28;20194;-62
2021/11/24 00:05:40;;;;;;;28.47;18.17;;;6.60;99.90;;;;;;5043016;28;20444;-62
2021/11/24 00:08:06;;;;;;;27.10;17.77;;;6.60;99.90;;;;;;5038891;28;20179;-61
2021/11/24 00:10:34;;;;;;;30.70;19.27;;;6.70;99.90;;;;;;5031877;28;20936;-61
2021/11/24 00:13:04;;;;;;;27.87;17.80;;;6.70;99.90;;;;;;5036024;28;20246;-62
2021/11/24 00:15:30;;;;;;;32.35;19.45;;;6.60;99.90;;;;;;5036851;28;20446;-61
2021/11/24 00:17:56;;;;;;;27.20;17.90;;;6.70;99.90;;;;;;5043861;28;20220;-62
2021/11/24 00:20:22;;;;;;;28.30;17.80;;;6.60;99.90;;;;;;5046813;28;20457;-62
2021/11/24 00:22:48;;;;;;;28.60;19.00;;;6.70;99.90;;;;;;5033417;28;20186;-62
2021/11/24 00:25:14;;;;;;;29.93;19.07;;;6.70;99.90;;;;;;5045374;28;20482;-62
2021/11/24 00:27:39;;;;;;;26.53;17.40;;;6.70;99.90;;;;;;5035254;28;20245;-62
2021/11/24 00:30:07;;;;;;;30.60;17.60;;;6.70;99.90;;;;;;5042141;28;20573;-62
2021/11/24 00:32:33;;;;;;;28.13;18.30;;;6.70;99.90;;;;;;5048498;28;20210;-62
2021/11/24 00:34:59;;;;;;;24.10;17.60;;;6.60;99.90;;;;;;5050263;28;20508;-62
2021/11/24 00:37:26;;;;;;;30.07;19.97;;;6.60;99.90;;;;;;5047978;28;20766;-61
2021/11/24 00:39:52;;;;;;;29.97;18.50;;;6.60;99.90;;;;;;5051268;28;20495;-63
2021/11/24 00:42:17;;;;;;;26.90;18.97;;;6.60;99.90;;;;;;5034833;28;20473;-62
2021/11/24 00:44:43;;;;;;;30.73;19.60;;;6.60;99.90;;;;;;5042064;28;20262;-62
2021/11/24 00:47:09;;;;;;;28.03;18.23;;;6.50;99.90;;;;;;5029539;28;20613;-61
2021/11/24 00:49:39;;;;;;;32.33;17.80;;;6.50;99.90;;;;;;5042102;28;20190;-62
2021/11/24 00:52:06;;;;;;;27.23;17.25;;;6.50;99.90;;;;;;5033283;28;20186;-64
2021/11/24 00:54:32;;;;;;;30.90;19.07;;;6.50;99.90;;;;;;5025486;28;20190;-62
2021/11/24 00:56:58;;;;;;;27.33;19.13;;;6.50;99.90;;;;;;5041403;28;20880;-63
2021/11/24 00:59:23;;;;;;;29.17;19.77;;;6.50;99.90;;;;;;5047041;28;20267;-62
2021/11/24 01:01:49;;;;;;;30.27;20.30;;;6.50;99.90;;;;;;5049087;28;20316;-62
2021/11/24 01:04:15;;;;;;;30.37;19.57;;;6.50;99.90;;;;;;5032981;28;20190;-62
2021/11/24 01:06:40;;;;;;;26.70;18.50;;;6.50;99.90;;;;;;5039933;28;20417;-62
2021/11/24 01:09:06;;;;;;;30.53;17.00;;;6.50;99.90;;;;;;5032562;28;20190;-62
2021/11/24 01:11:33;;;;;;;24.97;16.67;;;6.50;99.90;;;;;;5034835;28;20190;-62
2021/11/24 01:14:00;;;;;;;24.90;16.25;;;6.50;99.90;;;;;;5032401;28;20214;-61
2021/11/24 01:16:25;;;;;;;25.00;16.15;;;6.40;99.90;;;;;;5030733;28;20269;-62
2021/11/24 01:18:51;;;;;;;29.47;17.30;;;6.40;99.90;;;;;;5031204;28;20648;-62
2021/11/24 01:21:17;;;;;;;28.23;17.53;;;6.40;99.90;;;;;;5037199;28;20281;-61
2021/11/24 01:23:46;;;;;;;26.50;16.47;;;6.40;99.90;;;;;;5036156;28;20187;-62
2021/11/24 01:26:12;;;;;;;26.00;15.47;;;6.40;99.90;;;;;;5043332;28;20441;-62
2021/11/24 01:28:38;;;;;;;27.80;17.43;;;6.40;99.90;;;;;;5042418;28;21173;-62
2021/11/24 01:31:03;;;;;;;25.20;16.10;;;6.40;99.90;;;;;;5048333;28;20455;-56
2021/11/24 01:33:29;;;;;;;24.70;16.00;;;6.40;99.90;;;;;;5050826;28;20210;-62
2021/11/24 01:35:55;;;;;;;23.60;15.20;;;6.40;99.90;;;;;;5039851;28;20179;-61
2021/11/24 01:38:21;;;;;;;28.00;17.00;;;6.40;99.90;;;;;;5044898;28;20452;-62
2021/11/24 01:40:47;;;;;;;26.23;15.93;;;6.40;99.90;;;;;;5029883;28;20227;-62
2021/11/24 01:43:13;;;;;;;21.73;15.20;;;6.40;99.90;;;;;;5028052;28;20221;-61
2021/11/24 01:45:39;;;;;;;22.67;14.43;;;6.40;99.90;;;;;;5037006;28;20864;-62
2021/11/24 01:48:06;;;;;;;23.83;16.57;;;6.40;99.90;;;;;;5046738;28;20190;-61
2021/11/24 01:50:32;;;;;;;24.93;15.37;;;6.40;99.90;;;;;;5042403;28;20260;-63
2021/11/24 01:52:58;;;;;;;26.33;16.00;;;6.40;99.90;;;;;;5039893;28;20468;-60
2021/11/24 01:55:23;;;;;;;24.57;16.43;;;6.40;99.90;;;;;;5047143;28;20439;-62
2021/11/24 01:57:51;;;;;;;23.90;15.40;;;6.30;99.90;;;;;;5048404;28;20190;-61
2021/11/24 02:00:28;;;;;;;22.63;15.33;;;6.30;99.90;;;;;;5045379;28;20570;-62
2021/11/24 02:02:55;;;;;;;24.03;15.30;;;6.30;99.90;;;;;;5022360;28;20470;-63
2021/11/24 02:05:22;;;;;;;23.83;15.77;;;6.30;99.90;;;;;;5035574;28;20436;-61
2021/11/24 02:07:48;;;;;;;24.70;15.80;;;6.30;99.90;;;;;;5051523;28;20445;-61
2021/11/24 02:10:14;;;;;;;25.50;14.90;;;6.30;99.90;;;;;;5048419;28;20521;-62
2021/11/24 02:12:40;;;;;;;26.03;15.70;;;6.30;99.90;;;;;;5055529;28;20467;-61
2021/11/24 02:15:08;;;;;;;21.47;15.57;;;6.30;99.90;;;;;;5053847;28;20472;-62
2021/11/24 02:17:34;;;;;;;23.60;15.63;;;6.30;99.90;;;;;;5048238;28;20969;-61
2021/11/24 02:19:59;;;;;;;22.60;15.30;;;6.30;99.90;;;;;;5052232;28;20468;-61
2021/11/24 02:22:25;;;;;;;23.53;15.30;;;6.20;99.90;;;;;;5050989;28;20199;-62
2021/11/24 02:24:51;;;;;;;24.50;15.13;;;6.20;99.90;;;;;;5054512;28;20208;-62
2021/11/24 02:27:17;;;;;;;24.33;14.97;;;6.20;99.90;;;;;;5045641;28;20200;-61
2021/11/24 02:29:44;;;;;;;22.43;14.13;;;6.20;99.90;;;;;;5050658;28;20685;-61
2021/11/24 02:32:11;;;;;;;22.13;14.80;;;6.20;99.90;;;;;;5053736;28;20467;-62
2021/11/24 02:34:37;;;;;;;23.40;15.27;;;6.30;99.90;;;;;;5051070;28;20443;-62
2021/11/24 02:37:03;;;;;;;25.70;16.50;;;6.30;99.90;;;;;;5054271;28;20441;-62
2021/11/24 02:39:30;;;;;;;24.90;16.10;;;6.30;99.90;;;;;;5052822;28;20238;-61
2021/11/24 02:41:56;;;;;;;25.77;15.27;;;6.30;99.90;;;;;;5046415;28;20808;-62
2021/11/24 02:44:40;;;;;;;22.03;14.03;;;6.30;99.90;;;;;;5035589;28;20418;-62
2021/11/24 02:47:07;;;;;;;23.67;15.13;;;6.40;99.90;;;;;;5044998;28;20191;-61
2021/11/24 02:49:35;;;;;;;23.70;14.70;;;6.40;99.90;;;;;;5050089;28;20431;-61
2021/11/24 02:52:00;;;;;;;23.83;15.50;;;6.40;99.90;;;;;;5053033;28;20428;-62
2021/11/24 02:54:26;;;;;;;23.10;14.63;;;6.50;99.90;;;;;;5055137;28;20412;-61
2021/11/24 02:56:52;;;;;;;22.00;13.83;;;6.50;99.90;;;;;;5052806;28;20345;-61
2021/11/24 02:59:17;;;;;;;21.60;14.97;;;6.50;99.90;;;;;;5055783;28;20171;-61
2021/11/24 03:01:43;;;;;;;23.57;15.93;;;6.50;99.90;;;;;;5053209;28;20190;-61
2021/11/24 03:04:09;;;;;;;20.07;13.43;;;6.50;99.90;;;;;;5055391;28;20185;-61
2021/11/24 03:06:35;;;;;;;24.10;14.90;;;6.50;99.90;;;;;;5053899;28;20540;-61
2021/11/24 03:09:01;;;;;;;24.73;14.13;;;6.50;99.90;;;;;;5055354;28;20251;-61
2021/11/24 03:11:27;;;;;;;22.73;14.00;;;6.50;99.90;;;;;;5052751;28;20470;-61
2021/11/24 03:13:52;;;;;;;21.77;14.07;;;6.40;99.90;;;;;;5055292;28;20194;-61
2021/11/24 03:16:18;;;;;;;20.80;12.90;;;6.50;99.90;;;;;;5053090;28;20194;-55
2021/11/24 03:18:43;;;;;;;20.37;12.93;;;6.50;99.90;;;;;;5051290;28;20611;-61
2021/11/24 03:21:09;;;;;;;21.40;13.70;;;6.40;99.90;;;;;;5049512;28;20216;-57
2021/11/24 03:23:35;;;;;;;19.40;13.70;;;6.50;99.90;;;;;;5051686;28;20186;-62
2021/11/24 03:26:01;;;;;;;23.33;14.20;;;6.50;99.90;;;;;;5051196;28;20182;-60
2021/11/24 03:28:26;;;;;;;21.97;14.50;;;6.50;99.90;;;;;;5050516;28;20645;-61
2021/11/24 03:30:52;;;;;;;20.80;13.40;;;6.50;99.90;;;;;;5049783;28;20471;-60
2021/11/24 03:33:18;;;;;;;18.73;13.63;;;6.50;99.90;;;;;;5041365;28;20732;-48
2021/11/24 03:35:43;;;;;;;19.63;13.20;;;6.50;99.90;;;;;;5048345;28;20182;-52
2021/11/24 03:38:09;;;;;;;20.23;13.30;;;6.50;99.90;;;;;;5046430;28;20250;-49
2021/11/24 03:40:35;;;;;;;24.17;14.03;;;6.50;99.90;;;;;;5050308;28;20226;-50
2021/11/24 03:43:02;;;;;;;22.10;14.20;;;6.50;99.90;;;;;;5049401;28;20208;-48
2021/11/24 03:45:31;;;;;;;20.65;13.40;;;6.50;99.90;;;;;;5049269;28;20444;-47
2021/11/24 03:47:58;;;;;;;23.80;14.57;;;6.50;99.90;;;;;;5050291;28;20332;-54
2021/11/24 03:50:24;;;;;;;23.13;13.40;;;6.50;99.90;;;;;;5047886;28;20201;-48
2021/11/24 03:52:50;;;;;;;24.90;13.93;;;6.50;99.90;;;;;;5050479;28;20210;-51
2021/11/24 03:55:17;;;;;;;19.60;13.70;;;6.50;99.90;;;;;;5040860;28;20178;-47
2021/11/24 03:57:43;;;;;;;21.00;13.80;;;6.50;99.90;;;;;;5045851;28;20203;-54
2021/11/24 04:00:12;;;;;;;25.20;15.98;;;6.50;99.90;;;;;;5045061;28;20181;-53
2021/11/24 04:02:38;;;;;;;22.20;13.60;;;6.50;99.90;;;;;;5036412;28;20222;-50
2021/11/24 04:05:09;;;;;;;22.35;14.20;;;6.50;99.90;;;;;;5037702;28;20424;-53
2021/11/24 04:07:35;;;;;;;26.10;16.13;;;6.50;99.90;;;;;;5026516;28;20214;-53
2021/11/24 04:10:01;;;;;;;22.93;13.83;;;6.50;99.90;;;;;;5050616;28;20186;-52
2021/11/24 04:12:27;;;;;;;23.35;14.05;;;6.50;99.90;;;;;;5037947;28;20519;-48
2021/11/24 04:14:52;;;;;;;20.93;14.17;;;6.50;99.90;;;;;;5032443;28;20217;-53
2021/11/24 04:17:18;;;;;;;20.27;14.27;;;6.50;99.90;;;;;;5047274;28;20441;-50
2021/11/24 04:19:44;;;;;;;21.77;14.83;;;6.60;99.90;;;;;;5048067;28;20182;-52
2021/11/24 04:22:09;;;;;;;23.17;14.70;;;6.60;99.90;;;;;;5049234;28;20182;-52
2021/11/24 04:24:36;;;;;;;23.93;14.67;;;6.60;99.90;;;;;;5050771;28;20167;-49
2021/11/24 04:27:02;;;;;;;21.40;13.07;;;6.60;99.90;;;;;;5047562;28;20189;-49
2021/11/24 04:29:28;;;;;;;21.03;13.70;;;6.60;99.90;;;;;;5050389;28;20474;-49
2021/11/24 04:31:54;;;;;;;20.17;13.00;;;6.60;99.90;;;;;;5051333;28;20930;-51
2021/11/24 04:34:20;;;;;;;21.00;13.80;;;6.60;99.90;;;;;;5050501;28;20174;-54
2021/11/24 04:36:45;;;;;;;21.17;12.23;;;6.60;99.90;;;;;;5049158;28;20189;-50
2021/11/24 04:39:11;;;;;;;21.73;12.70;;;6.60;99.90;;;;;;5050604;28;20229;-49
2021/11/24 04:41:37;;;;;;;20.23;13.10;;;6.60;99.90;;;;;;5049047;28;20193;-49
2021/11/24 04:44:04;;;;;;;20.83;13.63;;;6.60;99.90;;;;;;5052166;28;20198;-50
2021/11/24 04:46:30;;;;;;;21.40;13.40;;;6.60;99.90;;;;;;5038663;28;20186;-50
2021/11/24 04:48:55;;;;;;;22.70;12.67;;;6.70;99.90;;;;;;5042436;28;20455;-52
2021/11/24 04:51:21;;;;;;;21.60;13.60;;;6.60;99.90;;;;;;5046634;28;20190;-47
2021/11/24 04:53:47;;;;;;;22.33;14.20;;;6.60;99.90;;;;;;5043586;28;20205;-54
2021/11/24 04:56:13;;;;;;;22.73;14.23;;;6.60;99.90;;;;;;5043680;28;20174;-51
2021/11/24 04:59:12;;;;;;;22.47;13.87;;;6.60;99.90;;;;;;5046366;28;20445;-52
2021/11/24 05:01:31;;;;;;;20.83;13.17;;;6.60;99.90;;;;;;5036765;28;20413;-49
2021/11/24 05:03:56;;;;;;;24.20;14.53;;;6.60;99.90;;;;;;5042174;28;20497;-48
2021/11/24 05:06:23;;;;;;;26.63;15.50;;;6.50;99.90;;;;;;5046269;28;20437;-48
2021/11/24 05:08:50;;;;;;;22.27;13.68;;;6.40;99.90;;;;;;5041812;28;20207;-50
2021/11/24 05:11:18;;;;;;;21.35;14.23;;;6.40;99.90;;;;;;5037279;28;20182;-51
2021/11/24 05:13:50;;;;;;;27.65;14.88;;;6.40;99.90;;;;;;5046609;28;20583;-53
2021/11/24 05:16:18;;;;;;;24.27;15.70;;;6.40;99.90;;;;;;5036022;28;20205;-53
2021/11/24 05:18:47;;;;;;;23.48;15.55;;;6.30;99.90;;;;;;5046211;28;20936;-48
2021/11/24 05:21:22;;;;;;;26.88;15.82;;;6.30;99.90;;;;;;5043096;28;20257;-53
2021/11/24 05:23:48;;;;;;;29.52;15.70;;;6.30;99.90;;;;;;5029712;28;20291;-49
2021/11/24 05:26:13;;;;;;;24.27;14.20;;;6.20;99.90;;;;;;5041253;28;20187;-52
2021/11/24 05:28:39;;;;;;;24.87;16.27;;;6.30;99.90;;;;;;5036177;28;20444;-51
2021/11/24 05:31:05;;;;;;;25.63;15.93;;;6.30;99.90;;;;;;5043987;28;20186;-50
2021/11/24 05:33:31;;;;;;;21.73;14.52;;;6.30;99.90;;;;;;5044911;28;20288;-53
2021/11/24 05:35:57;;;;;;;24.73;15.90;;;6.30;99.90;;;;;;5037500;28;20183;-52
2021/11/24 05:38:23;;;;;;;27.83;16.30;;;6.20;99.90;;;;;;5049626;28;20220;-49
2021/11/24 05:40:48;;;;;;;25.47;16.47;;;6.20;99.90;;;;;;5041467;28;20304;-52
2021/11/24 05:43:19;;;;;;;27.20;15.67;;;6.20;99.90;;;;;;5052264;28;20241;-51
2021/11/24 05:46:09;;;;;;;26.13;15.65;;;6.20;99.90;;;;;;5043902;28;20177;-49
2021/11/24 05:48:30;;;;;;;30.30;16.85;;;6.20;99.90;;;;;;5042281;28;20641;-50
2021/11/24 05:50:56;;;;;;;26.17;17.97;;;6.20;99.90;;;;;;5035813;28;20186;-50
2021/11/24 05:53:21;;;;;;;28.23;17.70;;;6.20;99.90;;;;;;5034683;28;20194;-52
2021/11/24 05:55:49;;;;;;;34.30;17.60;;;6.20;99.90;;;;;;5031736;28;20182;-51
2021/11/24 05:58:19;;;;;;;30.67;17.65;;;6.30;99.90;;;;;;5043906;28;20187;-53
2021/11/24 06:00:45;;;;;;;30.25;17.42;;;6.30;99.90;;;;;;5033734;28;20202;-49
2021/11/24 06:03:10;;;;;;;31.50;17.38;;;6.30;99.90;;;;;;5033804;28;20179;-51
2021/11/24 06:05:37;;;;;;;31.50;18.00;;;6.30;99.90;;;;;;5038197;28;20675;-52
2021/11/24 06:08:03;;;;;;;28.63;17.40;;;6.30;99.90;;;;;;5034753;28;20186;-50
2021/11/24 06:10:30;;;;;;;26.23;17.03;;;6.40;99.90;;;;;;5036675;28;20186;-47
2021/11/24 06:12:56;;;;;;;25.60;15.68;;;6.40;99.90;;;;;;5046930;28;20448;-53
2021/11/24 06:15:22;;;;;;;24.40;14.90;;;6.50;99.90;;;;;;5029197;28;20501;-48
2021/11/24 06:17:48;;;;;;;24.57;17.03;;;6.50;99.90;;;;;;5047077;28;20178;-49
2021/11/24 06:20:16;;;;;;;30.05;18.33;;;6.40;99.90;;;;;;5048250;28;20197;-53
2021/11/24 06:22:43;;;;;;;26.90;17.45;;;6.40;99.90;;;;;;5047928;28;20556;-51
2021/11/24 06:25:11;;;;;;;31.42;16.52;;;6.40;99.90;;;;;;5048629;28;20256;-51
2021/11/24 06:27:37;;;;;;;28.20;15.70;;;6.40;99.90;;;;;;5048305;28;20182;-50
2021/11/24 06:30:05;;;;;;;25.10;16.33;;;6.40;99.90;;;;;;5047558;28;20681;-50
2021/11/24 06:32:30;;;;;;;27.13;16.38;;;6.40;99.90;;;;;;5047864;28;20455;-53
2021/11/24 06:34:56;;;;;;;27.90;17.70;;;6.40;99.90;;;;;;5048674;28;20186;-50
2021/11/24 06:37:22;;;;;;;26.20;16.77;;;6.50;99.90;;;;;;5048236;28;20178;-52
2021/11/24 06:39:48;;;;;;;26.80;16.70;;;6.50;99.90;;;;;;5048825;28;20728;-49
2021/11/24 06:42:15;;;;;;;25.93;16.50;;;6.50;99.90;;;;;;5037712;28;20191;-51
2021/11/24 06:44:40;;;;;;;31.50;16.70;;;6.50;99.90;;;;;;5028939;28;20403;-52
2021/11/24 06:47:06;;;;;;;25.27;15.20;;;6.50;99.90;;;;;;5036275;28;20671;-52
2021/11/24 06:49:32;;;;;;;23.57;15.40;;;6.60;99.90;;;;;;5029114;28;20433;-50
2021/11/24 06:51:57;;;;;;;28.67;16.80;;;6.50;99.90;;;;;;5035678;28;20194;-48
2021/11/24 06:54:23;;;;;;;24.97;15.43;;;6.60;99.90;;;;;;5052097;28;20194;-50
2021/11/24 06:56:50;;;;;;;28.30;16.33;;;6.60;99.90;;;;;;5051423;28;20189;-53
2021/11/24 06:59:17;;;;;;;28.48;16.40;;;6.50;99.90;;;;;;5050557;28;20183;-49
2021/11/24 07:01:43;;;;;;;27.13;17.05;;;6.60;99.90;;;;;;5048938;28;20198;-52
2021/11/24 07:04:09;;;;;;;24.08;15.07;;;6.60;99.90;;;;;;5051337;28;20193;-52
2021/11/24 07:06:35;;;;;;;28.52;17.58;;;6.70;99.90;;;;;;5050208;28;20919;-52
2021/11/24 07:09:03;;;;;;;30.20;17.10;;;6.70;99.90;;;;;;5039773;28;20261;-49
2021/11/24 07:11:31;;;;;;;25.63;15.67;;;6.70;99.90;;;;;;5032170;28;20798;-54
2021/11/24 07:13:58;;;;;;;27.80;16.27;;;6.70;99.90;;;;;;5045952;28;20479;-49
2021/11/24 07:16:24;;;;;;;26.83;17.30;;;6.70;99.90;;;;;;5036562;28;20436;-51
2021/11/24 07:18:50;;;;;;;26.93;17.00;;;6.70;99.90;;;;;;5040070;28;20438;-52
2021/11/24 07:21:15;;;;;;;28.43;17.37;;;6.80;99.90;;;;;;5032087;28;20179;-53
2021/11/24 07:23:41;;;;;;;28.73;16.43;;;6.80;99.90;;;;;;5034205;28;20434;-53
2021/11/24 07:26:07;;;;;;;30.93;17.53;;;6.80;99.90;;;;;;5032198;28;20183;-50
2021/11/24 07:28:33;;;;;;;28.27;17.47;;;6.80;99.90;;;;;;5040424;28;20269;-50
2021/11/24 07:30:58;;;;;;;26.90;16.97;;;6.90;99.90;;;;;;5050912;28;20436;-52
2021/11/24 07:33:24;;;;;;;28.80;15.90;;;6.80;99.90;;;;;;5038863;28;20218;-51
2021/11/24 07:35:50;;;;;;;24.20;17.13;;;6.90;99.90;;;;;;5033621;28;20662;-54
2021/11/24 07:38:16;;;;;;;22.87;15.43;;;6.90;99.90;;;;;;5037630;28;20206;-52
2021/11/24 07:40:41;;;;;;;30.43;17.07;;;6.80;99.90;;;;;;5037961;28;20238;-50
2021/11/24 07:43:08;;;;;;;23.90;15.97;;;6.90;99.90;;;;;;5047762;28;20421;-52
2021/11/24 07:45:34;;;;;;;26.00;14.67;;;6.90;99.90;;;;;;5051191;28;20656;-50
2021/11/24 07:48:00;;;;;;;23.57;15.10;;;6.90;99.90;;;;;;5047074;28;20422;-49
2021/11/24 07:50:26;;;;;;;25.60;16.43;;;6.90;99.90;;;;;;5051520;28;20790;-49
2021/11/24 07:52:51;;;;;;;29.57;15.27;;;6.90;99.90;;;;;;5037714;28;20206;-50
2021/11/24 07:55:17;;;;;;;27.50;15.20;;;6.90;99.90;;;;;;5040957;28;20513;-50
2021/11/24 07:57:43;;;;;;;24.63;15.57;;;6.90;99.90;;;;;;5050166;28;20232;-49
2021/11/24 08:00:10;;;;;;;24.60;15.60;;;6.90;99.90;;;;;;5050487;28;20440;-50
2021/11/24 08:02:35;;;;;;;26.50;16.20;;;7.00;99.90;;;;;;5032859;28;20935;-50
2021/11/24 08:05:03;;;;;;;25.63;16.33;;;7.00;99.90;;;;;;5053040;28;20440;-54
2021/11/24 08:07:31;;;;;;;23.43;15.33;;;7.10;99.90;;;;;;5033290;28;20179;-52
2021/11/24 08:09:57;;;;;;;22.90;15.10;;;7.10;99.90;;;;;;5034109;28;20519;-54
2021/11/24 08:12:23;;;;;;;25.40;15.87;;;7.00;99.90;;;;;;5046347;28;20514;-54
2021/11/24 08:14:49;;;;;;;24.33;16.17;;;7.00;99.90;;;;;;5035257;28;20461;-49
2021/11/24 08:17:14;;;;;;;24.60;14.93;;;7.00;99.90;;;;;;5038050;28;20809;-54
2021/11/24 08:19:40;;;;;;;26.80;16.37;;;7.00;99.90;;;;;;5041228;28;20183;-50
2021/11/24 08:22:06;;;;;;;24.50;14.47;;;7.00;99.90;;;;;;5037499;28;20210;-49
2021/11/24 08:24:32;;;;;;;26.50;15.30;;;7.10;99.90;;;;;;5034338;28;20429;-48
2021/11/24 08:26:57;;;;;;;24.20;15.70;;;7.10;99.90;;;;;;5031248;28;20179;-50
2021/11/24 08:29:23;;;;;;;26.87;15.83;;;7.20;99.90;;;;;;5034854;28;20190;-53
2021/11/24 08:31:49;;;;;;;22.60;14.90;;;7.20;99.90;;;;;;5030260;28;20794;-52
2021/11/24 08:34:14;;;;;;;21.83;14.10;;;7.20;99.90;;;;;;5044045;28;20202;-57
2021/11/24 08:36:40;;;;;;;22.23;15.20;;;7.30;99.90;;;;;;5042125;28;20197;-52
2021/11/24 08:39:07;;;;;;;24.60;14.90;;;7.30;99.90;;;;;;5032465;28;20683;-50
2021/11/24 08:41:33;;;;;;;23.80;15.80;;;7.40;99.90;;;;;;5030618;28;20476;-51
2021/11/24 08:44:00;;;;;;;20.83;15.10;;;7.40;99.90;;;;;;5043425;28;20420;-52
2021/11/24 08:46:26;;;;;;;20.83;14.60;;;7.40;99.90;;;;;;5032805;28;20252;-54
2021/11/24 08:48:51;;;;;;;24.17;15.93;;;7.40;99.90;;;;;;5040894;28;20452;-54
2021/11/24 08:51:17;;;;;;;24.70;15.23;;;7.40;99.90;;;;;;5042561;28;20413;-53
2021/11/24 08:53:43;;;;;;;24.80;14.13;;;7.50;99.90;;;;;;5037214;28;20549;-51
2021/11/24 08:56:09;;;;;;;24.20;15.13;;;7.50;99.90;;;;;;5049151;28;20178;-52
2021/11/24 08:58:34;;;;;;;21.87;14.90;;;7.60;99.90;;;;;;5054446;28;20583;-50
2021/11/24 09:01:00;;;;;;;21.40;15.00;;;7.60;99.90;;;;;;5043848;28;20866;-50
2021/11/24 09:03:26;;;;;;;21.70;15.33;;;7.60;99.90;;;;;;5031958;28;20546;-48
2021/11/24 09:05:52;;;;;;;23.70;15.50;;;7.60;99.90;;;;;;5042935;28;20479;-52
2021/11/24 09:08:18;;;;;;;29.37;26.17;;;7.60;99.90;;;;;;5031432;28;20179;-52
2021/11/24 09:10:44;;;;;;;22.83;16.47;;;7.70;99.90;;;;;;5036189;28;20213;-49
2021/11/24 09:13:10;;;;;;;24.27;15.60;;;7.80;99.90;;;;;;5030517;28;20469;-51
2021/11/24 09:15:36;;;;;;;24.47;14.57;;;7.70;99.90;;;;;;5040987;28;20791;-48
2021/11/24 09:18:03;;;;;;;23.10;14.00;;;7.60;99.90;;;;;;5040374;28;20495;-49
2021/11/24 09:20:29;;;;;;;19.97;13.30;;;7.70;99.90;;;;;;5040007;28;20859;-50
2021/11/24 09:22:55;;;;;;;19.33;14.10;;;7.90;99.90;;;;;;5047120;28;20424;-49
2021/11/24 09:25:25;;;;;;;18.97;13.67;;;7.90;99.90;;;;;;5028969;28;20903;-50
2021/11/24 09:30:20;;;;;;;21.60;15.00;;;8.10;99.90;;;;;;5030241;28;20475;-49
2021/11/24 09:32:45;;;;;;;24.00;16.73;;;8.30;99.90;;;;;;5041039;28;20850;-52
2021/11/24 09:35:12;;;;;;;26.50;15.27;;;8.30;99.90;;;;;;5040442;28;20425;-49
2021/11/24 09:37:38;;;;;;;22.90;15.40;;;8.40;99.90;;;;;;5040715;28;20459;-52
2021/11/24 09:40:06;;;;;;;22.97;14.40;;;8.40;99.90;;;;;;5048570;28;20472;-52
2021/11/24 09:42:36;;;;;;;18.30;13.13;;;8.40;99.90;;;;;;5036769;28;20429;-51
2021/11/24 09:45:03;;;;;;;18.43;13.77;;;8.50;99.90;;;;;;5049347;28;20508;-51
2021/11/24 09:47:29;;;;;;;19.37;13.33;;;8.50;99.90;;;;;;5040555;28;20424;-52
2021/11/24 09:49:59;;;;;;;20.97;14.47;;;8.60;99.90;;;;;;5035741;28;20445;-51
2021/11/24 09:52:26;;;;;;;18.03;12.80;;;8.60;99.90;;;;;;5043107;28;21203;-48
2021/11/24 09:54:53;;;;;;;19.93;12.90;;;8.60;99.90;;;;;;5049297;28;20500;-50
2021/11/24 09:57:25;;;;;;;19.87;14.00;;;8.70;99.90;;;;;;5036989;28;20435;-51
2021/11/24 09:59:52;;;;;;;16.53;11.60;;;8.80;99.90;;;;;;5040047;28;20432;-56
2021/11/24 10:02:19;;;;;;;17.13;11.00;;;8.90;99.90;;;;;;5044922;28;20418;-54
2021/11/24 10:04:46;;;;;;;17.17;13.47;;;9.00;99.90;;;;;;5046936;28;20911;-49
2021/11/24 10:07:15;;;;;;;17.67;12.87;;;9.10;99.90;;;;;;5031300;28;20410;-52
2021/11/24 10:09:41;;;;;;;17.47;11.83;;;9.10;99.90;;;;;;5045540;28;20440;-53
2021/11/24 10:12:08;;;;;;;18.30;12.50;;;9.00;99.90;;;;;;5032756;28;21453;-50
2021/11/24 10:14:35;;;;;;;19.03;12.40;;;8.90;99.90;;;;;;5037141;28;20516;-52
2021/11/24 10:17:11;;;;;;;19.40;12.77;;;8.90;99.90;;;;;;5035719;28;20970;-50
2021/11/24 10:19:37;;;;;;;19.20;12.33;;;8.80;99.90;;;;;;5038096;28;20422;-50
2021/11/24 10:22:05;;;;;;;18.80;12.50;;;8.70;99.90;;;;;;5042340;28;20412;-51
2021/11/24 10:24:42;;;;;;;16.70;11.90;;;8.70;99.90;;;;;;5040621;28;20437;-53
2021/11/24 10:27:10;;;;;;;17.20;12.90;;;8.70;99.90;;;;;;5036834;28;20417;-51
2021/11/24 10:29:37;;;;;;;18.07;12.07;;;8.60;99.90;;;;;;5051400;28;20443;-53
2021/11/24 10:32:06;;;;;;;16.07;11.23;;;8.60;99.90;;;;;;5053316;28;20404;-50
2021/11/24 10:34:39;;;;;;;19.03;12.80;;;8.50;99.90;;;;;;5042170;28;20463;-49
2021/11/24 10:37:15;;;;;;;18.80;13.20;;;8.60;99.90;;;;;;5053020;28;20429;-51
2021/11/24 10:39:56;;;;;;;16.10;11.27;;;8.20;99.90;;;;;;5044012;28;20468;-53
2021/11/24 10:42:30;;;;;;;17.50;12.37;;;8.30;99.90;;;;;;5032963;28;20410;-51
2021/11/24 10:45:11;;;;;;;16.93;12.23;;;8.40;99.90;;;;;;5032526;28;20425;-49
2021/11/24 10:47:51;;;;;;;16.67;12.10;;;8.40;99.90;;;;;;5039539;28;20436;-50
2021/11/24 10:50:19;;;;;;;15.57;10.90;;;8.50;99.90;;;;;;5042629;28;21068;-50
2021/11/24 10:52:46;;;;;;;14.83;11.63;;;8.60;99.90;;;;;;5052230;28;20468;-50
2021/11/24 10:55:26;;;;;;;17.50;11.97;;;8.70;99.90;;;;;;5033827;28;20451;-50
2021/11/24 10:58:05;;;;;;;14.10;10.40;;;8.80;99.90;;;;;;5040334;28;20515;-51
2021/11/24 11:00:41;;;;;;;18.33;11.83;;;8.90;99.90;;;;;;5041393;28;20532;-50
2021/11/24 11:03:08;;;;;;;15.60;10.93;;;8.80;99.90;;;;;;5032453;28;20797;-51
2021/11/24 11:05:35;;;;;;;15.73;10.63;;;8.90;99.90;;;;;;5046733;28;20540;-50
2021/11/24 11:08:06;;;;;;;15.90;11.80;;;8.90;99.90;;;;;;5042070;28;20495;-49
2021/11/24 11:10:38;;;;;;;16.13;11.17;;;8.90;99.90;;;;;;5041876;28;20888;-50
2021/11/24 11:13:07;;;;;;;17.80;11.70;;;9.10;99.90;;;;;;5039668;28;20468;-52
2021/11/24 11:15:43;;;;;;;13.47;10.47;;;9.20;99.90;;;;;;5047354;28;20468;-48
2021/11/24 11:18:09;;;;;;;12.10;10.40;;;9.20;99.90;;;;;;5034179;28;20435;-49
2021/11/24 11:20:44;;;;;;;13.23;10.07;;;9.10;99.90;;;;;;5051306;28;20424;-51
2021/11/24 11:23:46;;;;;;;12.80;9.93;;;9.20;99.90;;;;;;5041056;28;20187;-47
2021/11/24 11:26:18;;;;;;;13.20;10.07;;;9.10;99.90;;;;;;4950457;29;20442;-51
2021/11/24 11:28:56;;;;;;;16.57;11.17;;;9.10;99.90;;;;;;5022174;28;20425;-51
2021/11/24 11:31:23;;;;;;;15.63;10.77;;;9.00;99.90;;;;;;5042278;28;20425;-48
2021/11/24 11:33:59;;;;;;;14.60;10.43;;;8.90;99.90;;;;;;5040750;28;20542;-51
2021/11/24 11:36:25;;;;;;;14.13;10.43;;;8.90;99.90;;;;;;5041750;28;20514;-49
2021/11/24 11:38:53;;;;;;;12.53;9.40;;;8.80;99.90;;;;;;5050542;28;20486;-48
2021/11/24 11:41:30;;;;;;;13.70;10.23;;;8.90;99.90;;;;;;5049923;28;20428;-50
2021/11/24 11:43:56;;;;;;;13.17;9.90;;;8.80;99.90;;;;;;5046510;28;20433;-55
2021/11/24 11:46:33;;;;;;;14.63;10.20;;;8.80;99.90;;;;;;5043293;28;20503;-48
2021/11/24 11:49:11;;;;;;;13.87;10.37;;;8.70;99.90;;;;;;5051550;28;20930;-52
2021/11/24 11:51:39;;;;;;;14.00;10.10;;;8.60;99.90;;;;;;5041915;28;20432;-48
2021/11/24 11:54:09;;;;;;;16.60;11.30;;;8.60;99.90;;;;;;5037586;28;20551;-47
2021/11/24 11:56:38;;;;;;;15.77;10.40;;;8.60;99.90;;;;;;5033118;28;21138;-51
2021/11/24 11:59:15;;;;;;;15.40;9.67;;;8.70;99.90;;;;;;5032464;28;20395;-51
2021/11/24 12:01:40;;;;;;;13.17;8.93;;;8.70;99.90;;;;;;5041287;28;20409;-58
2021/11/24 12:04:20;;;;;;;11.63;8.47;;;8.70;99.90;;;;;;5051319;28;20483;-54
2021/11/24 12:06:52;;;;;;;10.50;8.00;;;8.70;99.90;;;;;;5050742;28;20186;-56
2021/11/24 12:09:17;;;;;;;12.33;7.77;;;8.60;99.90;;;;;;5051238;28;20491;-48
2021/11/24 12:12:04;;;;;;;12.53;9.20;;;8.60;99.90;;;;;;5050427;28;20491;-49
2021/11/24 12:14:57;;;;;;;10.10;8.23;;;8.50;99.90;;;;;;5050617;28;20202;-52
2021/11/24 12:17:32;;;;;;;10.93;8.37;;;8.40;99.90;;;;;;5044210;28;20428;-49
2021/11/24 12:20:19;;;;;;;12.03;8.47;;;8.50;99.90;;;;;;5050431;28;20416;-47
2021/11/24 12:22:45;;;;;;;10.60;8.23;;;8.50;99.90;;;;;;5032004;28;20856;-50
2021/11/24 12:30:33;;;;;;;14.40;8.70;;;8.50;99.90;;;;;;5048820;28;21376;-51
2021/11/24 12:33:00;;;;;;;12.00;9.30;;;8.50;99.90;;;;;;5045299;28;20461;-51
2021/11/24 12:35:26;;;;;;;13.60;9.23;;;8.50;99.90;;;;;;5040753;28;20781;-52
2021/11/24 12:37:56;;;;;;;13.13;9.60;;;8.50;99.90;;;;;;5049844;28;20442;-51
2021/11/24 12:40:32;;;;;;;11.90;8.80;;;8.50;99.90;;;;;;5050381;28;20463;-53
2021/11/24 12:43:07;;;;;;;11.87;9.20;;;8.30;99.90;;;;;;5049494;28;20922;-62
2021/11/24 12:45:34;;;;;;;12.40;9.10;;;8.30;99.90;;;;;;5050427;28;20404;-61
2021/11/24 12:48:02;;;;;;;13.17;9.03;;;8.30;99.90;;;;;;5048795;28;20444;-61